Flight Track Log - Related Links

Times and Time Zones

All times are in EDT time to prevent confusion due to time zone crossing. See the SWA1174 flight status page for this flight to view local times or setup timezone preferences in your user account.

Time Position Orientation Groundspeed Altitude Reporting Facility
EDT Latitude Longitude Course Direction KTS MPH feet Rate Location/Type
Mon 07:59:47 PM 33.4333 -112.0333 253° West 157 181 2,100  Level Phoenix TRACON
Mon 08:00:59 PM 33.4167 -112.1000 253° West 215 247 4,200 2,571 Climbing Phoenix TRACON
Mon 08:01:53 PM 33.4000 -112.1667 184° South 228 262 7,500 3,087 Climbing Phoenix TRACON
Mon 08:02:42 PM 33.3469 -112.1706 118° Southeast 277 319 9,500 2,700 Climbing Albuquerque Center
Mon 08:03:53 PM 33.3000 -112.0667 72° East 340 391 12,900 2,967 Climbing Phoenix TRACON
Mon 08:05:42 PM 33.3547 -111.8628 69° East 385 443 18,400 2,876 Climbing Albuquerque Center
Mon 08:06:42 PM 33.3950 -111.7356 69° East 390 449 21,000 1,700 Climbing Albuquerque Center
Mon 08:07:42 PM 33.4350 -111.6081 71° East 396 456 21,800 1,815 Climbing Albuquerque Center
Mon 08:08:41 PM 33.4731 -111.4733 71° East 409 471 24,600 2,450 Climbing Albuquerque Center
Mon 08:09:42 PM 33.5064 -111.3578 82° East 409 471 26,700 1,850 Climbing Albuquerque Center
Mon 08:10:41 PM 33.5236 -111.2117 83° East 421 484 28,300 1,815 Climbing Albuquerque Center
Mon 08:11:41 PM 33.5386 -111.0631 82° East 433 498 30,300 1,950 Climbing Albuquerque Center
Mon 08:12:41 PM 33.5558 -110.9142 71° East 443 510 32,200 2,033 Climbing Albuquerque Center
Mon 08:13:42 PM 33.5953 -110.7739 68° East 448 516 34,400 1,884 Climbing Albuquerque Center
Mon 08:14:42 PM 33.6408 -110.6383 69° East 434 499 36,000 1,550 Climbing Albuquerque Center
Mon 08:15:42 PM 33.6842 -110.5028 68° East 434 499 37,500 1,500 Climbing Albuquerque Center
Mon 08:16:42 PM 33.7294 -110.3647 70° East 439 505 39,000 756 Climbing Albuquerque Center
Mon 08:17:41 PM 33.7700 -110.2339 69° East 428 493 39,000  Level Albuquerque Center
Mon 08:18:42 PM 33.8128 -110.1003 69° East 428 493 39,000  Level Albuquerque Center
Mon 08:19:42 PM 33.8556 -109.9667 70° East 428 493 39,000  Level Albuquerque Center
Mon 08:20:42 PM 33.8958 -109.8353 68° East 428 493 39,000  Level Albuquerque Center
Mon 08:21:41 PM 33.9403 -109.6992 70° East 428 493 39,000  Level Albuquerque Center
Mon 08:22:41 PM 33.9803 -109.5675 69° East 428 493 39,000  Level Albuquerque Center
Mon 08:23:41 PM 34.0225 -109.4358 69° East 428 493 39,000  Level Albuquerque Center
Mon 08:24:41 PM 34.0642 -109.3014 69° East 428 493 39,000  Level Albuquerque Center
Mon 08:25:42 PM 34.1125 -109.1522 69° East 433 498 39,000  Level Albuquerque Center
Mon 08:26:41 PM 34.1542 -109.0175 69° East 433 498 39,000  Level Albuquerque Center
Mon 08:27:42 PM 34.1956 -108.8853 81° East 428 493 39,000  Level Albuquerque Center
Mon 08:28:42 PM 34.2139 -108.7400 85° East 428 493 39,000  Level Albuquerque Center
Mon 08:29:42 PM 34.2239 -108.5944 84° East 428 493 39,000  Level Albuquerque Center
Mon 08:30:42 PM 34.2358 -108.4464 86° East 433 498 39,000  Level Albuquerque Center
Mon 08:31:41 PM 34.2433 -108.3008 85° East 433 498 39,000  Level Albuquerque Center
Mon 08:32:42 PM 34.2547 -108.1550 88° East 433 498 39,000  Level Albuquerque Center
Mon 08:33:41 PM 34.2597 -108.0119 86° East 426 490 39,000  Level Albuquerque Center
Mon 08:34:42 PM 34.2689 -107.8639 85° East 431 496 39,000  Level Albuquerque Center
Mon 08:35:42 PM 34.2797 -107.7131 85° East 437 503 39,000  Level Albuquerque Center
Mon 08:36:42 PM 34.2906 -107.5647 86° East 442 509 39,000  Level Albuquerque Center
Mon 08:37:41 PM 34.2992 -107.4164 85° East 441 507 39,000  Level Albuquerque Center
Mon 08:38:42 PM 34.3094 -107.2656 86° East 441 507 39,000  Level Albuquerque Center
Mon 08:39:42 PM 34.3175 -107.1122 86° East 450 518 39,000  Level Albuquerque Center
Mon 08:40:42 PM 34.3256 -106.9664 86° East 450 518 39,000  Level Albuquerque Center
Mon 08:41:41 PM 34.3353 -106.8103 84° East 450 518 39,000  Level Albuquerque Center
Mon 08:42:42 PM 34.3472 -106.6619 89° East 450 518 39,000  Level Albuquerque Center
Mon 08:43:41 PM 34.3503 -106.5058 87° East 450 518 39,000  Level Albuquerque Center
Mon 08:44:42 PM 34.3575 -106.3522 87° East 463 533 39,000  Level Albuquerque Center
Mon 08:45:41 PM 34.3644 -106.2039 85° East 458 527 39,000  Level Albuquerque Center
Mon 08:46:41 PM 34.3753 -106.0478 87° East 453 521 39,000  Level Albuquerque Center
Mon 08:47:42 PM 34.3819 -105.8942 86° East 453 521 39,000  Level Albuquerque Center
Mon 08:48:41 PM 34.3906 -105.7403 87° East 462 532 39,000  Level Albuquerque Center
Mon 08:49:42 PM 34.3969 -105.6017 87° East 456 525 39,000  Level Albuquerque Center
Mon 08:50:41 PM 34.4047 -105.4406 87° East 464 534 39,000 600 Level Albuquerque Center
Mon 08:51:42 PM 34.4106 -105.2817 87° East 469 540 40,200 900 Climbing Albuquerque Center
Mon 08:52:41 PM 34.4181 -105.1206 87° East 474 545 40,800 403 Climbing Albuquerque Center
Mon 08:53:41 PM 34.4253 -104.9567 87° East 483 556 41,000 100 Climbing Albuquerque Center
Mon 08:54:41 PM 34.4322 -104.7953 87° East 478 550 41,000  Level Albuquerque Center
Mon 08:55:42 PM 34.4392 -104.6314 88° East 478 550 41,000  Level Albuquerque Center
Mon 08:56:42 PM 34.4436 -104.4675 87° East 483 556 41,000  Level Albuquerque Center
Mon 08:57:42 PM 34.4500 -104.3036 87° East 483 556 41,000  Level Albuquerque Center
Mon 08:58:42 PM 34.4578 -104.1269 88° East 477 549 41,000  Level Albuquerque Center
Mon 08:59:42 PM 34.4617 -103.9631 87° East 477 549 41,000  Level Albuquerque Center
Mon 09:00:41 PM 34.4675 -103.8017 88° East 482 555 41,000  Level Albuquerque Center
Mon 09:01:41 PM 34.4731 -103.6375 88° East 477 549 41,000  Level Albuquerque Center
Mon 09:03:58 PM 34.4844 -103.2783 89° East 480 552 41,000  Level Fort Worth Center
Mon 09:04:58 PM 34.4875 -103.1172 88° East 480 552 41,000  Level Fort Worth Center
Mon 09:05:58 PM 34.4928 -102.9539 92° East 480 552 41,000  Level Fort Worth Center
Mon 09:06:58 PM 34.4875 -102.7872 97° East 480 552 41,000  Level Fort Worth Center
Mon 09:07:58 PM 34.4714 -102.6275 97° East 480 552 41,000  Level Fort Worth Center
Mon 09:08:58 PM 34.4553 -102.4628 96° East 485 558 41,000  Level Fort Worth Center
Mon 09:09:58 PM 34.4394 -102.2806 98° East 491 565 41,000  Level Fort Worth Center
Mon 09:10:58 PM 34.4206 -102.1236 98° East 491 565 41,000  Level Fort Worth Center
Mon 09:11:58 PM 34.4033 -101.9667 98° East 472 543 41,000  Level Fort Worth Center
Mon 09:12:58 PM 34.3861 -101.8097 98° East 463 533 41,000  Level Fort Worth Center
Mon 09:13:58 PM 34.3686 -101.6503 97° East 469 540 41,000  Level Fort Worth Center
Mon 09:14:58 PM 34.3531 -101.4936 100° East 463 533 41,000  Level Fort Worth Center
Mon 09:15:58 PM 34.3342 -101.3594 95° East 463 533 41,000  Level Fort Worth Center
Mon 09:16:58 PM 34.3225 -101.2031 92° East 463 533 41,000  Level Fort Worth Center
Mon 09:17:58 PM 34.3186 -101.0469 92° East 463 533 41,000  Level Fort Worth Center
Mon 09:18:58 PM 34.3150 -100.8883 91° East 463 533 41,000  Level Fort Worth Center
Mon 09:19:58 PM 34.3131 -100.7275 91° East 463 533 41,000  Level Fort Worth Center
Mon 09:20:58 PM 34.3108 -100.5714 92° East 463 533 41,000  Level Fort Worth Center
Mon 09:21:58 PM 34.3047 -100.3953 90° East 468 539 41,000  Level Fort Worth Center
Mon 09:22:58 PM 34.3044 -100.2267 89° East 479 551 41,000  Level Fort Worth Center
Mon 09:23:58 PM 34.3058 -100.0608 86° East 484 557 41,000  Level Fort Worth Center
Mon 09:24:58 PM 34.3156 -99.8928 81° East 494 568 41,000  Level Fort Worth Center
Mon 09:25:58 PM 34.3378 -99.7222 81° East 506 582 41,000  Level Fort Worth Center
Mon 09:26:58 PM 34.3572 -99.5644 87° East 513 590 41,000  Level Fort Worth Center
Mon 09:27:58 PM 34.3642 -99.3933 90° East 513 590 41,000  Level Fort Worth Center
Mon 09:28:58 PM 34.3647 -99.2125 92° East 507 583 41,000  Level Fort Worth Center
Mon 09:29:58 PM 34.3608 -99.0486 100° East 497 572 41,000  Level Fort Worth Center
Mon 09:30:58 PM 34.3358 -98.8797 102° East 497 572 41,000  Level Fort Worth Center
Mon 09:31:58 PM 34.3083 -98.7183 100° East 502 578 41,000  Level Fort Worth Center
Mon 09:32:58 PM 34.2828 -98.5494 101° East 502 578 41,000  Level Fort Worth Center
Mon 09:33:58 PM 34.2572 -98.3883 100° East 502 578 41,000  Level Fort Worth Center
Mon 09:34:58 PM 34.2311 -98.2172 102° East 510 587 41,000  Level Fort Worth Center
Mon 09:35:58 PM 34.2050 -98.0689 101° East 510 587 41,000  Level Fort Worth Center
Mon 09:36:58 PM 34.1786 -97.9006 101° East 510 587 41,000  Level Fort Worth Center
Mon 09:37:58 PM 34.1519 -97.7297 101° East 510 587 41,000  Level Fort Worth Center
Mon 09:38:58 PM 34.1253 -97.5614 101° East 510 587 41,000  Level Fort Worth Center
Mon 09:39:58 PM 34.0939 -97.3758 98° East 510 587 41,000  Level Fort Worth Center
Mon 09:40:58 PM 34.0772 -97.2278 102° East 504 580 41,000  Level Fort Worth Center
Mon 09:41:58 PM 34.0497 -97.0675 101° East 504 580 41,000  Level Fort Worth Center
Mon 09:42:58 PM 34.0242 -96.9047 101° East 493 567 41,000  Level Fort Worth Center
Mon 09:43:58 PM 33.9983 -96.7469 102° East 480 552 41,000  Level Fort Worth Center
Mon 09:44:58 PM 33.9681 -96.5744 101° East 480 552 41,000  Level Fort Worth Center
Mon 09:45:58 PM 33.9419 -96.4169 102° East 480 552 41,000  Level Fort Worth Center
Mon 09:46:58 PM 33.9133 -96.2572 101° East 480 552 41,000  Level Fort Worth Center
Mon 09:47:58 PM 33.8869 -96.0975 102° East 486 559 41,000  Level Fort Worth Center
Mon 09:48:58 PM 33.8581 -95.9403 100° East 486 559 41,000  Level Fort Worth Center
Mon 09:49:58 PM 33.8331 -95.7781 103° East 484 557 41,000  Level Fort Worth Center
Mon 09:50:58 PM 33.8036 -95.6211 105° East 484 557 41,000  Level Fort Worth Center
Mon 09:51:58 PM 33.7725 -95.4844 103° East 484 557 41,000  Level Fort Worth Center
Mon 09:52:58 PM 33.7428 -95.3278 102° East 484 557 41,000  Level Fort Worth Center
Mon 09:53:58 PM 33.7150 -95.1686 103° East 484 557 41,000  Level Fort Worth Center
Mon 09:54:58 PM 33.6853 -95.0169 100° East 484 557 41,000  Level Fort Worth Center
Mon 09:55:58 PM 33.6611 -94.8606 102° East 477 549 41,000  Level Fort Worth Center
Mon 09:56:58 PM 33.6328 -94.7042 102° East 477 549 41,000  Level Fort Worth Center
Mon 09:57:58 PM 33.6044 -94.5478 103° East 477 549 41,000  Level Fort Worth Center
Mon 09:58:58 PM 33.5758 -94.3944 102° East 472 543 41,000  Level Fort Worth Center
Mon 09:59:58 PM 33.5492 -94.2431 102° East 467 537 41,000  Level Fort Worth Center
Mon 10:00:58 PM 33.5222 -94.0922 104° East 467 537 41,000  Level Fort Worth Center
Mon 10:01:58 PM 33.4908 -93.9364 102° East 473 544 41,000  Level Fort Worth Center
Mon 10:02:58 PM 33.4608 -93.7633 104° East 473 544 41,000  Level Fort Worth Center
Mon 10:04:58 PM 33.3997 -93.4647 103° East 467 537 41,000  Level Fort Worth Center
Mon 10:05:58 PM 33.3697 -93.3119 103° East 467 537 41,000  Level Fort Worth Center
Mon 10:06:58 PM 33.3417 -93.1617 103° East 467 537 41,000  Level Fort Worth Center
Mon 10:07:58 PM 33.3114 -93.0064 104° East 467 537 41,000  Level Fort Worth Center
Mon 10:08:58 PM 33.2811 -92.8564 104° East 467 537 41,000  Level Fort Worth Center
Mon 10:09:58 PM 33.2483 -92.7042 108° East 467 537 41,000  Level Fort Worth Center
Mon 10:10:58 PM 33.2094 -92.5622 109° East 462 532 41,000  Level Fort Worth Center
Mon 10:11:58 PM 33.1661 -92.4158 108° East 462 532 41,000  Level Fort Worth Center
Mon 10:14:17 PM 33.0753 -92.0928 110° East 465 535 41,000  Level Memphis Center
Mon 10:15:17 PM 33.0275 -91.9331 109° East 465 535 41,000  Level Memphis Center
Mon 10:16:17 PM 32.9853 -91.7864 108° East 460 529 41,000  Level Memphis Center
Mon 10:17:17 PM 32.9450 -91.6419 108° East 460 529 41,000  Level Memphis Center
Mon 10:18:17 PM 32.9047 -91.4956 102° East 465 535 41,000  Level Memphis Center
Mon 10:19:17 PM 32.8769 -91.3467 106° East 465 535 41,000  Level Memphis Center
Mon 10:20:17 PM 32.8425 -91.2006 105° East 459 528 41,000  Level Memphis Center
Mon 10:21:17 PM 32.8100 -91.0542 105° East 454 522 41,000  Level Memphis Center
Mon 10:22:17 PM 32.7772 -90.9108 105° East 454 522 41,000  Level Memphis Center
Mon 10:23:17 PM 32.7486 -90.7797 105° East 459 528 41,000  Level Memphis Center
Mon 10:24:17 PM 32.7156 -90.6339 105° East 453 521 41,000  Level Memphis Center
Mon 10:25:17 PM 32.6822 -90.4881 106° East 453 521 41,000  Level Memphis Center
Mon 10:26:17 PM 32.6469 -90.3425 105° East 453 521 41,000  Level Memphis Center
Mon 10:27:17 PM 32.6133 -90.1969 106° East 453 521 41,000  Level Memphis Center
Mon 10:28:17 PM 32.5775 -90.0492 105° East 453 521 41,000  Level Memphis Center
Mon 10:29:17 PM 32.5436 -89.9014 106° East 453 521 41,000  Level Memphis Center
Mon 10:30:17 PM 32.5075 -89.7539 105° East 453 521 41,000  Level Memphis Center
Mon 10:31:17 PM 32.4711 -89.5939 105° East 453 521 41,000  Level Memphis Center
Mon 10:32:17 PM 32.4369 -89.4467 106° East 453 521 41,000  Level Memphis Center
Mon 10:33:17 PM 32.4022 -89.3042 106° East 453 521 41,000  Level Memphis Center
Mon 10:34:17 PM 32.3675 -89.1594 106° East 453 521 41,000  Level Memphis Center
Mon 10:35:17 PM 32.3328 -89.0150 106° East 453 521 41,000  Level Memphis Center
Mon 10:36:17 PM 32.2978 -88.8706 106° East 453 521 41,000  Level Memphis Center
Mon 10:37:52 PM 32.2444 -88.6578 106° East 474 545 41,000  Level Atlanta Center
Mon 10:38:52 PM 32.2083 -88.5111 107° East 474 545 41,000  Level Atlanta Center
Mon 10:39:52 PM 32.1697 -88.3644 112° Southeast 469 540 41,000  Level Atlanta Center
Mon 10:40:52 PM 32.1222 -88.2250 111° Southeast 464 534 41,000  Level Atlanta Center
Mon 10:41:52 PM 32.0769 -88.0856 113° Southeast 459 528 41,000  Level Atlanta Center
Mon 10:42:52 PM 32.0272 -87.9461 112° Southeast 454 522 41,000  Level Atlanta Center
Mon 10:43:52 PM 31.9814 -87.8094 112° Southeast 454 522 41,000  Level Atlanta Center
Mon 10:44:52 PM 31.9314 -87.6606 113° Southeast 454 522 41,000  Level Atlanta Center
Mon 10:45:52 PM 31.8811 -87.5239 111° Southeast 454 522 41,000  Level Atlanta Center
Mon 10:46:52 PM 31.8350 -87.3853 114° Southeast 454 522 41,000  Level Atlanta Center
Mon 10:47:52 PM 31.7881 -87.2589 113° Southeast 459 528 41,000  Level Atlanta Center
Mon 10:50:22 PM 31.6661 -86.9222 114° Southeast 461 531 41,000  Level Jacksonville Center
Mon 10:51:22 PM 31.6142 -86.7836 113° Southeast 452 520 41,000  Level Jacksonville Center
Mon 10:52:22 PM 31.5639 -86.6450 112° Southeast 459 528 41,000  Level Jacksonville Center
Mon 10:53:22 PM 31.5158 -86.5064 117° Southeast 459 528 41,000  Level Jacksonville Center
Mon 10:54:22 PM 31.4589 -86.3753 123° Southeast 459 528 41,000  Level Jacksonville Center
Mon 10:55:22 PM 31.3872 -86.2483 122° Southeast 459 528 41,000  Level Jacksonville Center
Mon 10:56:22 PM 31.3217 -86.1244 123° Southeast 454 522 41,000  Level Jacksonville Center
Mon 10:57:22 PM 31.2517 -86.0006 123° Southeast 454 522 41,000  Level Jacksonville Center
Mon 10:58:22 PM 31.1756 -85.8644 122° Southeast 454 522 41,000  Level Jacksonville Center
Mon 10:59:22 PM 31.1075 -85.7386 123° Southeast 454 522 41,000  Level Jacksonville Center
Mon 11:00:22 PM 31.0411 -85.6178 123° Southeast 449 517 41,000  Level Jacksonville Center
Mon 11:01:22 PM 30.9728 -85.4947 123° Southeast 449 517 41,000  Level Jacksonville Center
Mon 11:02:22 PM 30.9042 -85.3694 124° Southeast 449 517 41,000  Level Jacksonville Center
Mon 11:03:22 PM 30.8336 -85.2467 123° Southeast 449 517 41,000  Level Jacksonville Center
Mon 11:04:22 PM 30.7647 -85.1239 123° Southeast 449 517 41,000  Level Jacksonville Center
Mon 11:05:22 PM 30.6958 -85.0017 125° Southeast 449 517 41,000  Level Jacksonville Center
Mon 11:06:22 PM 30.6247 -84.8817 122° Southeast 449 517 41,000  Level Jacksonville Center
Mon 11:07:22 PM 30.5578 -84.7572 124° Southeast 449 517 41,000  Level Jacksonville Center
Mon 11:08:22 PM 30.4906 -84.6403 125° Southeast 444 511 41,000  Level Jacksonville Center
Mon 11:09:22 PM 30.4169 -84.5186 123° Southeast 449 517 41,000  Level Jacksonville Center
Mon 11:10:22 PM 30.3475 -84.3969 123° Southeast 449 517 41,000  Level Jacksonville Center
Mon 11:11:22 PM 30.2800 -84.2781 126° Southeast 449 517 41,000  Level Jacksonville Center
Mon 11:12:21 PM 30.2081 -84.1617 124° Southeast 444 511 41,000  Level Jacksonville Center
Mon 11:13:21 PM 30.1381 -84.0406 123° Southeast 444 511 41,000  Level Jacksonville Center
Mon 11:14:21 PM 30.0703 -83.9197 123° Southeast 444 511 41,000  Level Jacksonville Center
Mon 11:15:21 PM 30.0003 -83.7969 124° Southeast 444 511 41,000  Level Jacksonville Center
Mon 11:16:21 PM 29.9300 -83.6786 124° Southeast 449 517 41,000  Level Jacksonville Center
Mon 11:17:21 PM 29.8578 -83.5558 125° Southeast 449 517 41,000 -50 Level Jacksonville Center
Mon 11:18:21 PM 29.7853 -83.4358 125° Southeast 449 517 40,900 -1,150 Descending Jacksonville Center
Mon 11:19:21 PM 29.7147 -83.3183 125° Southeast 449 517 38,700 -2,182 Descending Jacksonville Center
Mon 11:20:22 PM 29.6481 -83.2081 124° Southeast 458 527 36,500 -2,331 Descending Jacksonville Center
Mon 11:21:22 PM 29.5775 -83.0861 123° Southeast 458 527 34,000 -2,521 Descending Jacksonville Center
Mon 11:22:21 PM 29.5108 -82.9689 125° Southeast 458 527 31,500 -2,824 Descending Jacksonville Center
Mon 11:23:21 PM 29.4397 -82.8519 124° Southeast 452 520 28,400 -3,000 Descending Jacksonville Center
Mon 11:24:21 PM 29.3728 -82.7400 124° Southeast 441 507 25,500 -2,500 Descending Jacksonville Center
Mon 11:25:21 PM 29.3081 -82.6306 124° Southeast 435 501 23,400 -1,550 Descending Jacksonville Center
Mon 11:26:21 PM 29.2472 -82.5283 125° Southeast 413 475 22,400 -1,200 Descending Jacksonville Center
Mon 11:27:21 PM 29.1842 -82.4264 125° Southeast 398 458 21,000 -2,000 Descending Jacksonville Center
Mon 11:28:21 PM 29.1253 -82.3292 124° Southeast 380 437 18,400 -2,450 Descending Jacksonville Center
Mon 11:29:21 PM 29.0686 -82.2344 124° Southeast 374 430 16,100 -2,450 Descending Jacksonville Center
Mon 11:30:21 PM 29.0139 -82.1422 124° Southeast 368 423 13,500 -2,250 Descending Jacksonville Center
Mon 11:31:21 PM 28.9633 -82.0572 128° Southeast 348 400 11,600 -1,240 Descending Jacksonville Center
Mon 11:32:22 PM 28.9125 -81.9817 123° Southeast 325 374 11,000 -300 Descending Jacksonville Center
Mon 11:33:21 PM 28.8703 -81.9064 120° Southeast 298 343 11,000  Level Jacksonville Center
Mon 11:33:54 PM 28.8500 -81.8667 120° Southeast 266 306 11,000 -138 Level Orlando TRACON
Mon 11:34:48 PM 28.8167 -81.8000 120° Southeast 271 312 10,800 -944 Descending Orlando TRACON
Mon 11:35:42 PM 28.7833 -81.7333 111° Southeast 265 305 9,300 -1,700 Descending Orlando TRACON
Mon 11:36:48 PM 28.7500 -81.6333 120° Southeast 264 304 7,400 -1,524 Descending Orlando TRACON
Mon 11:37:48 PM 28.7167 -81.5667 120° Southeast 258 297 6,100 -1,400 Descending Orlando TRACON
Mon 11:38:48 PM 28.6833 -81.5000 120° Southeast 249 287 4,600 -1,450 Descending Orlando TRACON
Mon 11:39:48 PM 28.6500 -81.4333 127° Southeast 242 278 3,200 -842 Descending Orlando TRACON
Mon 11:40:42 PM 28.6167 -81.3833 130° Southeast 220 253 3,000 -318 Descending Orlando TRACON
Mon 11:42:00 PM 28.5667 -81.3167 156° South 190 219 2,500 -391 Descending Orlando TRACON
Mon 11:43:00 PM 28.5333 -81.3000 180° South 161 185 2,100 -619 Descending Orlando TRACON
Mon 11:44:06 PM 28.4833 -81.3000 180° South 149 171 1,200 -762 Descending Orlando TRACON
Mon 11:45:06 PM 28.4500 -81.3000 180° South 129 148 500 -700 Descending Orlando TRACON

Login

Don't have an account? Register now (free) for customized features, flight alerts, and more!